sensor_id;sensor_type;location;lat;lon;timestamp;P1;durP1;ratioP1;P2;durP2;ratioP2
53971;SDS011;40530;53.062;6.078;2024-01-06T00:02:00;13.73;;;11.45;;
53971;SDS011;40530;53.062;6.078;2024-01-06T00:04:27;12.60;;;11.20;;
53971;SDS011;40530;53.062;6.078;2024-01-06T00:06:53;11.45;;;10.27;;
53971;SDS011;40530;53.062;6.078;2024-01-06T00:09:19;25.80;;;17.42;;
53971;SDS011;40530;53.062;6.078;2024-01-06T00:11:45;25.15;;;16.90;;
53971;SDS011;40530;53.062;6.078;2024-01-06T00:14:11;17.75;;;14.52;;
53971;SDS011;40530;53.062;6.078;2024-01-06T00:16:37;17.42;;;13.70;;
53971;SDS011;40530;53.062;6.078;2024-01-06T00:19:03;17.05;;;12.88;;
53971;SDS011;40530;53.062;6.078;2024-01-06T00:21:30;18.27;;;12.55;;
53971;SDS011;40530;53.062;6.078;2024-01-06T00:23:56;19.17;;;12.48;;
53971;SDS011;40530;53.062;6.078;2024-01-06T00:26:22;13.10;;;11.70;;
53971;SDS011;40530;53.062;6.078;2024-01-06T00:28:49;11.98;;;10.40;;
53971;SDS011;40530;53.062;6.078;2024-01-06T00:31:15;13.80;;;11.32;;
53971;SDS011;40530;53.062;6.078;2024-01-06T00:33:44;14.13;;;10.45;;
53971;SDS011;40530;53.062;6.078;2024-01-06T00:36:11;13.80;;;10.27;;
53971;SDS011;40530;53.062;6.078;2024-01-06T00:38:37;11.50;;;9.60;;
53971;SDS011;40530;53.062;6.078;2024-01-06T00:41:03;12.90;;;10.60;;
53971;SDS011;40530;53.062;6.078;2024-01-06T00:43:29;11.75;;;9.68;;
53971;SDS011;40530;53.062;6.078;2024-01-06T00:45:55;10.82;;;9.65;;
53971;SDS011;40530;53.062;6.078;2024-01-06T00:48:21;11.82;;;10.07;;
53971;SDS011;40530;53.062;6.078;2024-01-06T00:50:47;13.40;;;10.57;;
53971;SDS011;40530;53.062;6.078;2024-01-06T00:53:13;17.13;;;10.82;;
53971;SDS011;40530;53.062;6.078;2024-01-06T00:55:40;11.38;;;9.95;;
53971;SDS011;40530;53.062;6.078;2024-01-06T00:58:06;13.60;;;11.02;;
53971;SDS011;40530;53.062;6.078;2024-01-06T01:00:33;14.50;;;11.13;;
53971;SDS011;40530;53.062;6.078;2024-01-06T01:02:59;13.65;;;9.43;;
53971;SDS011;40530;53.062;6.078;2024-01-06T01:05:25;14.07;;;10.75;;
53971;SDS011;40530;53.062;6.078;2024-01-06T01:07:51;11.15;;;9.95;;
53971;SDS011;40530;53.062;6.078;2024-01-06T01:10:17;15.52;;;11.55;;
53971;SDS011;40530;53.062;6.078;2024-01-06T01:12:43;16.27;;;10.55;;
53971;SDS011;40530;53.062;6.078;2024-01-06T01:15:09;12.48;;;9.95;;
53971;SDS011;40530;53.062;6.078;2024-01-06T01:17:36;14.23;;;9.95;;
53971;SDS011;40530;53.062;6.078;2024-01-06T01:20:02;13.38;;;10.75;;
53971;SDS011;40530;53.062;6.078;2024-01-06T01:22:28;16.23;;;9.88;;
53971;SDS011;40530;53.062;6.078;2024-01-06T01:24:54;11.70;;;9.60;;
53971;SDS011;40530;53.062;6.078;2024-01-06T01:27:20;15.43;;;10.43;;
53971;SDS011;40530;53.062;6.078;2024-01-06T01:29:46;14.80;;;10.30;;
53971;SDS011;40530;53.062;6.078;2024-01-06T01:32:15;14.00;;;9.60;;
53971;SDS011;40530;53.062;6.078;2024-01-06T01:34:41;13.40;;;10.13;;
53971;SDS011;40530;53.062;6.078;2024-01-06T01:37:07;12.23;;;9.90;;
53971;SDS011;40530;53.062;6.078;2024-01-06T01:39:33;15.35;;;10.18;;
53971;SDS011;40530;53.062;6.078;2024-01-06T01:41:59;12.82;;;10.18;;
53971;SDS011;40530;53.062;6.078;2024-01-06T01:44:25;15.18;;;10.95;;
53971;SDS011;40530;53.062;6.078;2024-01-06T01:46:51;19.48;;;11.45;;
53971;SDS011;40530;53.062;6.078;2024-01-06T01:49:17;13.80;;;10.73;;
53971;SDS011;40530;53.062;6.078;2024-01-06T01:51:43;14.38;;;9.98;;
53971;SDS011;40530;53.062;6.078;2024-01-06T01:54:09;12.27;;;10.10;;
53971;SDS011;40530;53.062;6.078;2024-01-06T01:56:35;15.70;;;11.20;;
53971;SDS011;40530;53.062;6.078;2024-01-06T01:59:04;14.65;;;10.48;;
53971;SDS011;40530;53.062;6.078;2024-01-06T02:01:31;12.40;;;9.68;;
53971;SDS011;40530;53.062;6.078;2024-01-06T02:03:58;13.05;;;10.45;;
53971;SDS011;40530;53.062;6.078;2024-01-06T02:06:24;20.42;;;10.45;;
53971;SDS011;40530;53.062;6.078;2024-01-06T02:08:50;11.93;;;8.63;;
53971;SDS011;40530;53.062;6.078;2024-01-06T02:11:16;14.63;;;9.68;;
53971;SDS011;40530;53.062;6.078;2024-01-06T02:13:42;14.85;;;9.45;;
53971;SDS011;40530;53.062;6.078;2024-01-06T02:16:08;10.95;;;8.43;;
53971;SDS011;40530;53.062;6.078;2024-01-06T02:18:36;11.57;;;8.23;;
53971;SDS011;40530;53.062;6.078;2024-01-06T02:21:02;11.35;;;8.32;;
53971;SDS011;40530;53.062;6.078;2024-01-06T02:23:28;13.73;;;9.27;;
53971;SDS011;40530;53.062;6.078;2024-01-06T02:25:55;14.00;;;9.27;;
53971;SDS011;40530;53.062;6.078;2024-01-06T02:28:21;14.50;;;9.07;;
53971;SDS011;40530;53.062;6.078;2024-01-06T02:30:47;11.70;;;8.77;;
53971;SDS011;40530;53.062;6.078;2024-01-06T02:33:13;13.63;;;9.20;;
53971;SDS011;40530;53.062;6.078;2024-01-06T02:35:39;10.90;;;7.90;;
53971;SDS011;40530;53.062;6.078;2024-01-06T02:38:06;13.88;;;9.02;;
53971;SDS011;40530;53.062;6.078;2024-01-06T02:40:33;14.43;;;9.40;;
53971;SDS011;40530;53.062;6.078;2024-01-06T02:42:59;12.30;;;7.85;;
53971;SDS011;40530;53.062;6.078;2024-01-06T02:45:25;11.63;;;7.72;;
53971;SDS011;40530;53.062;6.078;2024-01-06T02:47:53;13.25;;;8.02;;
53971;SDS011;40530;53.062;6.078;2024-01-06T02:50:23;13.38;;;8.20;;
53971;SDS011;40530;53.062;6.078;2024-01-06T02:52:49;15.95;;;8.27;;
53971;SDS011;40530;53.062;6.078;2024-01-06T02:55:15;12.77;;;8.35;;
53971;SDS011;40530;53.062;6.078;2024-01-06T02:57:41;11.73;;;7.95;;
53971;SDS011;40530;53.062;6.078;2024-01-06T03:00:07;12.27;;;8.05;;
53971;SDS011;40530;53.062;6.078;2024-01-06T03:02:33;14.63;;;8.68;;
53971;SDS011;40530;53.062;6.078;2024-01-06T03:05:01;13.25;;;8.60;;
53971;SDS011;40530;53.062;6.078;2024-01-06T03:07:27;12.10;;;7.93;;
53971;SDS011;40530;53.062;6.078;2024-01-06T03:09:53;12.70;;;8.35;;
53971;SDS011;40530;53.062;6.078;2024-01-06T03:12:19;11.45;;;8.10;;
53971;SDS011;40530;53.062;6.078;2024-01-06T03:14:45;11.55;;;8.02;;
53971;SDS011;40530;53.062;6.078;2024-01-06T03:17:11;13.15;;;9.68;;
53971;SDS011;40530;53.062;6.078;2024-01-06T03:19:38;15.30;;;8.55;;
53971;SDS011;40530;53.062;6.078;2024-01-06T03:22:04;12.32;;;9.20;;
53971;SDS011;40530;53.062;6.078;2024-01-06T03:24:30;12.27;;;9.18;;
53971;SDS011;40530;53.062;6.078;2024-01-06T03:26:56;13.32;;;10.13;;
53971;SDS011;40530;53.062;6.078;2024-01-06T03:29:23;13.15;;;9.60;;
53971;SDS011;40530;53.062;6.078;2024-01-06T03:31:49;13.20;;;8.65;;
53971;SDS011;40530;53.062;6.078;2024-01-06T03:34:15;14.88;;;9.18;;
53971;SDS011;40530;53.062;6.078;2024-01-06T03:36:41;14.80;;;9.90;;
53971;SDS011;40530;53.062;6.078;2024-01-06T03:39:07;14.07;;;9.68;;
53971;SDS011;40530;53.062;6.078;2024-01-06T03:41:35;18.58;;;10.00;;
53971;SDS011;40530;53.062;6.078;2024-01-06T03:44:01;13.60;;;9.65;;
53971;SDS011;40530;53.062;6.078;2024-01-06T03:46:27;13.85;;;10.45;;
53971;SDS011;40530;53.062;6.078;2024-01-06T03:48:53;17.67;;;10.40;;
53971;SDS011;40530;53.062;6.078;2024-01-06T03:51:19;15.85;;;9.98;;
53971;SDS011;40530;53.062;6.078;2024-01-06T03:53:47;13.90;;;10.07;;
53971;SDS011;40530;53.062;6.078;2024-01-06T03:56:13;15.18;;;10.60;;
53971;SDS011;40530;53.062;6.078;2024-01-06T03:58:39;16.42;;;10.82;;
53971;SDS011;40530;53.062;6.078;2024-01-06T04:01:05;13.07;;;9.60;;
53971;SDS011;40530;53.062;6.078;2024-01-06T04:03:31;11.30;;;9.07;;
53971;SDS011;40530;53.062;6.078;2024-01-06T04:05:57;14.65;;;9.95;;
53971;SDS011;40530;53.062;6.078;2024-01-06T04:08:23;13.18;;;9.25;;
53971;SDS011;40530;53.062;6.078;2024-01-06T04:10:49;12.05;;;9.27;;
53971;SDS011;40530;53.062;6.078;2024-01-06T04:13:15;15.48;;;9.10;;
53971;SDS011;40530;53.062;6.078;2024-01-06T04:15:41;13.77;;;9.38;;
53971;SDS011;40530;53.062;6.078;2024-01-06T04:18:08;12.30;;;8.15;;
53971;SDS011;40530;53.062;6.078;2024-01-06T04:20:34;13.65;;;9.20;;
53971;SDS011;40530;53.062;6.078;2024-01-06T04:23:01;10.85;;;8.13;;
53971;SDS011;40530;53.062;6.078;2024-01-06T04:25:27;14.27;;;8.23;;
53971;SDS011;40530;53.062;6.078;2024-01-06T04:27:53;16.08;;;8.35;;
53971;SDS011;40530;53.062;6.078;2024-01-06T04:30:19;14.38;;;8.20;;
53971;SDS011;40530;53.062;6.078;2024-01-06T04:32:46;16.67;;;8.85;;
53971;SDS011;40530;53.062;6.078;2024-01-06T04:35:13;14.05;;;8.38;;
53971;SDS011;40530;53.062;6.078;2024-01-06T04:37:39;12.70;;;8.18;;
53971;SDS011;40530;53.062;6.078;2024-01-06T04:40:05;12.52;;;8.82;;
53971;SDS011;40530;53.062;6.078;2024-01-06T04:42:33;14.10;;;8.27;;
53971;SDS011;40530;53.062;6.078;2024-01-06T04:44:59;13.43;;;8.48;;
53971;SDS011;40530;53.062;6.078;2024-01-06T04:47:25;24.42;;;13.45;;
53971;SDS011;40530;53.062;6.078;2024-01-06T04:49:53;14.95;;;9.20;;
53971;SDS011;40530;53.062;6.078;2024-01-06T04:52:19;14.60;;;8.60;;
53971;SDS011;40530;53.062;6.078;2024-01-06T04:54:45;15.13;;;8.75;;
53971;SDS011;40530;53.062;6.078;2024-01-06T04:57:11;12.60;;;8.55;;
53971;SDS011;40530;53.062;6.078;2024-01-06T04:59:37;15.00;;;8.18;;
53971;SDS011;40530;53.062;6.078;2024-01-06T05:02:03;13.95;;;8.52;;
53971;SDS011;40530;53.062;6.078;2024-01-06T05:04:29;14.93;;;8.85;;
53971;SDS011;40530;53.062;6.078;2024-01-06T05:06:57;13.23;;;8.77;;
53971;SDS011;40530;53.062;6.078;2024-01-06T05:09:23;10.70;;;8.18;;
53971;SDS011;40530;53.062;6.078;2024-01-06T05:12:07;11.77;;;7.32;;
53971;SDS011;40530;53.062;6.078;2024-01-06T05:14:33;17.02;;;8.15;;
53971;SDS011;40530;53.062;6.078;2024-01-06T05:16:59;23.52;;;12.80;;
53971;SDS011;40530;53.062;6.078;2024-01-06T05:19:26;19.80;;;11.25;;
53971;SDS011;40530;53.062;6.078;2024-01-06T05:21:52;16.85;;;8.40;;
53971;SDS011;40530;53.062;6.078;2024-01-06T05:24:18;12.75;;;8.10;;
53971;SDS011;40530;53.062;6.078;2024-01-06T05:26:44;13.90;;;8.02;;
53971;SDS011;40530;53.062;6.078;2024-01-06T05:29:10;12.40;;;7.65;;
53971;SDS011;40530;53.062;6.078;2024-01-06T05:31:36;11.15;;;7.97;;
53971;SDS011;40530;53.062;6.078;2024-01-06T05:34:02;12.95;;;7.53;;
53971;SDS011;40530;53.062;6.078;2024-01-06T05:36:29;12.90;;;8.30;;
53971;SDS011;40530;53.062;6.078;2024-01-06T05:38:55;10.38;;;7.60;;
53971;SDS011;40530;53.062;6.078;2024-01-06T05:41:21;11.82;;;7.32;;
53971;SDS011;40530;53.062;6.078;2024-01-06T05:43:47;12.73;;;7.93;;
53971;SDS011;40530;53.062;6.078;2024-01-06T05:46:23;12.95;;;8.00;;
53971;SDS011;40530;53.062;6.078;2024-01-06T05:48:49;11.95;;;7.30;;
53971;SDS011;40530;53.062;6.078;2024-01-06T05:51:16;14.02;;;6.57;;
53971;SDS011;40530;53.062;6.078;2024-01-06T05:53:42;10.00;;;7.55;;
53971;SDS011;40530;53.062;6.078;2024-01-06T05:56:08;11.75;;;7.82;;
53971;SDS011;40530;53.062;6.078;2024-01-06T05:58:34;13.93;;;7.43;;
53971;SDS011;40530;53.062;6.078;2024-01-06T06:01:00;13.95;;;7.38;;
53971;SDS011;40530;53.062;6.078;2024-01-06T06:03:26;10.18;;;7.03;;
53971;SDS011;40530;53.062;6.078;2024-01-06T06:05:52;12.15;;;6.78;;
53971;SDS011;40530;53.062;6.078;2024-01-06T06:08:18;9.05;;;6.93;;
53971;SDS011;40530;53.062;6.078;2024-01-06T06:10:45;9.90;;;7.38;;
53971;SDS011;40530;53.062;6.078;2024-01-06T06:13:26;9.75;;;7.10;;
53971;SDS011;40530;53.062;6.078;2024-01-06T06:15:52;10.90;;;7.40;;
53971;SDS011;40530;53.062;6.078;2024-01-06T06:18:18;13.07;;;7.57;;
53971;SDS011;40530;53.062;6.078;2024-01-06T06:20:44;12.10;;;7.60;;
53971;SDS011;40530;53.062;6.078;2024-01-06T06:23:10;12.45;;;7.13;;
53971;SDS011;40530;53.062;6.078;2024-01-06T06:25:38;13.00;;;7.68;;
53971;SDS011;40530;53.062;6.078;2024-01-06T06:28:04;12.23;;;7.40;;
53971;SDS011;40530;53.062;6.078;2024-01-06T06:30:30;11.30;;;7.85;;
53971;SDS011;40530;53.062;6.078;2024-01-06T06:32:56;12.88;;;7.75;;
53971;SDS011;40530;53.062;6.078;2024-01-06T06:35:22;14.68;;;8.18;;
53971;SDS011;40530;53.062;6.078;2024-01-06T06:37:48;13.45;;;8.45;;
53971;SDS011;40530;53.062;6.078;2024-01-06T06:40:15;12.50;;;8.40;;
53971;SDS011;40530;53.062;6.078;2024-01-06T06:42:41;17.98;;;8.65;;
53971;SDS011;40530;53.062;6.078;2024-01-06T06:45:07;12.07;;;8.07;;
53971;SDS011;40530;53.062;6.078;2024-01-06T06:47:36;14.77;;;8.27;;
53971;SDS011;40530;53.062;6.078;2024-01-06T06:50:02;14.18;;;8.88;;
53971;SDS011;40530;53.062;6.078;2024-01-06T06:52:28;13.93;;;8.43;;
53971;SDS011;40530;53.062;6.078;2024-01-06T06:54:54;15.27;;;10.48;;
53971;SDS011;40530;53.062;6.078;2024-01-06T06:57:20;19.92;;;10.57;;
53971;SDS011;40530;53.062;6.078;2024-01-06T06:59:46;16.70;;;8.75;;
53971;SDS011;40530;53.062;6.078;2024-01-06T07:02:15;14.43;;;8.80;;
53971;SDS011;40530;53.062;6.078;2024-01-06T07:04:41;14.70;;;8.80;;
53971;SDS011;40530;53.062;6.078;2024-01-06T07:07:07;15.40;;;9.52;;
53971;SDS011;40530;53.062;6.078;2024-01-06T07:09:33;17.50;;;9.70;;
53971;SDS011;40530;53.062;6.078;2024-01-06T07:11:59;19.77;;;9.82;;
53971;SDS011;40530;53.062;6.078;2024-01-06T07:14:25;15.48;;;9.45;;
53971;SDS011;40530;53.062;6.078;2024-01-06T07:16:51;19.88;;;10.23;;
53971;SDS011;40530;53.062;6.078;2024-01-06T07:19:17;16.27;;;9.75;;
53971;SDS011;40530;53.062;6.078;2024-01-06T07:21:43;19.38;;;10.30;;
53971;SDS011;40530;53.062;6.078;2024-01-06T07:24:09;14.85;;;10.90;;
53971;SDS011;40530;53.062;6.078;2024-01-06T07:26:35;21.83;;;10.77;;
53971;SDS011;40530;53.062;6.078;2024-01-06T07:29:01;16.00;;;10.25;;
53971;SDS011;40530;53.062;6.078;2024-01-06T07:31:27;12.23;;;9.38;;
53971;SDS011;40530;53.062;6.078;2024-01-06T07:33:53;17.52;;;9.85;;
53971;SDS011;40530;53.062;6.078;2024-01-06T07:36:19;23.45;;;9.75;;
53971;SDS011;40530;53.062;6.078;2024-01-06T07:38:46;19.25;;;9.93;;
53971;SDS011;40530;53.062;6.078;2024-01-06T07:41:12;16.17;;;9.45;;
53971;SDS011;40530;53.062;6.078;2024-01-06T07:43:39;13.80;;;9.45;;
53971;SDS011;40530;53.062;6.078;2024-01-06T07:46:05;20.95;;;10.18;;
53971;SDS011;40530;53.062;6.078;2024-01-06T07:48:32;14.57;;;9.65;;
53971;SDS011;40530;53.062;6.078;2024-01-06T07:50:58;14.23;;;10.10;;
53971;SDS011;40530;53.062;6.078;2024-01-06T07:53:24;22.35;;;9.80;;
53971;SDS011;40530;53.062;6.078;2024-01-06T07:55:50;16.33;;;9.95;;
53971;SDS011;40530;53.062;6.078;2024-01-06T07:58:16;16.42;;;9.23;;
53971;SDS011;40530;53.062;6.078;2024-01-06T08:00:42;19.00;;;10.23;;
53971;SDS011;40530;53.062;6.078;2024-01-06T08:03:08;19.77;;;11.32;;
53971;SDS011;40530;53.062;6.078;2024-01-06T08:05:36;16.63;;;10.18;;
53971;SDS011;40530;53.062;6.078;2024-01-06T08:08:02;17.48;;;10.60;;
53971;SDS011;40530;53.062;6.078;2024-01-06T08:10:31;17.50;;;10.75;;
53971;SDS011;40530;53.062;6.078;2024-01-06T08:12:57;22.35;;;11.20;;
53971;SDS011;40530;53.062;6.078;2024-01-06T08:15:24;16.13;;;9.57;;
53971;SDS011;40530;53.062;6.078;2024-01-06T08:17:50;20.92;;;10.05;;
53971;SDS011;40530;53.062;6.078;2024-01-06T08:20:16;19.25;;;10.23;;
53971;SDS011;40530;53.062;6.078;2024-01-06T08:22:42;26.45;;;10.48;;
53971;SDS011;40530;53.062;6.078;2024-01-06T08:25:08;16.77;;;9.38;;
53971;SDS011;40530;53.062;6.078;2024-01-06T08:27:35;16.33;;;9.52;;
53971;SDS011;40530;53.062;6.078;2024-01-06T08:30:02;15.07;;;8.90;;
53971;SDS011;40530;53.062;6.078;2024-01-06T08:32:31;16.10;;;9.70;;
53971;SDS011;40530;53.062;6.078;2024-01-06T08:34:57;16.50;;;9.32;;
53971;SDS011;40530;53.062;6.078;2024-01-06T08:37:23;14.55;;;9.27;;
53971;SDS011;40530;53.062;6.078;2024-01-06T08:39:49;13.35;;;8.88;;
53971;SDS011;40530;53.062;6.078;2024-01-06T08:42:15;15.13;;;9.40;;
53971;SDS011;40530;53.062;6.078;2024-01-06T08:44:41;15.15;;;9.52;;
53971;SDS011;40530;53.062;6.078;2024-01-06T08:47:08;14.27;;;8.50;;
53971;SDS011;40530;53.062;6.078;2024-01-06T08:49:34;13.05;;;9.05;;
53971;SDS011;40530;53.062;6.078;2024-01-06T08:52:00;14.85;;;9.52;;
53971;SDS011;40530;53.062;6.078;2024-01-06T08:54:26;17.33;;;9.60;;
53971;SDS011;40530;53.062;6.078;2024-01-06T08:56:52;23.08;;;11.40;;
53971;SDS011;40530;53.062;6.078;2024-01-06T08:59:19;21.13;;;12.18;;
53971;SDS011;40530;53.062;6.078;2024-01-06T09:01:45;18.80;;;10.60;;
53971;SDS011;40530;53.062;6.078;2024-01-06T09:04:11;18.75;;;10.32;;
53971;SDS011;40530;53.062;6.078;2024-01-06T09:06:38;26.25;;;14.32;;
53971;SDS011;40530;53.062;6.078;2024-01-06T09:09:04;26.02;;;12.80;;
53971;SDS011;40530;53.062;6.078;2024-01-06T09:11:31;16.42;;;11.32;;
53971;SDS011;40530;53.062;6.078;2024-01-06T09:13:57;16.67;;;10.52;;
53971;SDS011;40530;53.062;6.078;2024-01-06T09:16:23;15.95;;;9.85;;
53971;SDS011;40530;53.062;6.078;2024-01-06T09:18:49;15.40;;;10.60;;
53971;SDS011;40530;53.062;6.078;2024-01-06T09:21:15;13.43;;;10.40;;
53971;SDS011;40530;53.062;6.078;2024-01-06T09:23:42;14.68;;;10.50;;
53971;SDS011;40530;53.062;6.078;2024-01-06T09:26:08;17.52;;;10.43;;
53971;SDS011;40530;53.062;6.078;2024-01-06T09:28:34;15.90;;;10.15;;
53971;SDS011;40530;53.062;6.078;2024-01-06T09:31:00;20.45;;;10.32;;
53971;SDS011;40530;53.062;6.078;2024-01-06T09:33:28;16.48;;;9.90;;
53971;SDS011;40530;53.062;6.078;2024-01-06T09:35:54;14.98;;;10.73;;
53971;SDS011;40530;53.062;6.078;2024-01-06T09:38:20;13.65;;;9.82;;
53971;SDS011;40530;53.062;6.078;2024-01-06T09:40:49;17.35;;;9.77;;
53971;SDS011;40530;53.062;6.078;2024-01-06T09:43:15;16.33;;;10.15;;
53971;SDS011;40530;53.062;6.078;2024-01-06T09:45:41;15.50;;;10.15;;
53971;SDS011;40530;53.062;6.078;2024-01-06T09:48:11;16.27;;;10.48;;
53971;SDS011;40530;53.062;6.078;2024-01-06T09:50:41;14.23;;;10.60;;
53971;SDS011;40530;53.062;6.078;2024-01-06T09:53:10;17.67;;;9.93;;
53971;SDS011;40530;53.062;6.078;2024-01-06T09:55:36;16.85;;;10.60;;
53971;SDS011;40530;53.062;6.078;2024-01-06T09:58:03;15.93;;;9.98;;
53971;SDS011;40530;53.062;6.078;2024-01-06T10:00:30;17.88;;;10.15;;
53971;SDS011;40530;53.062;6.078;2024-01-06T10:02:56;13.82;;;9.73;;
53971;SDS011;40530;53.062;6.078;2024-01-06T10:05:23;12.23;;;9.40;;
53971;SDS011;40530;53.062;6.078;2024-01-06T10:07:49;20.00;;;9.63;;
53971;SDS011;40530;53.062;6.078;2024-01-06T10:10:15;12.88;;;10.10;;
53971;SDS011;40530;53.062;6.078;2024-01-06T10:12:41;17.33;;;9.80;;
53971;SDS011;40530;53.062;6.078;2024-01-06T10:15:08;15.05;;;9.68;;
53971;SDS011;40530;53.062;6.078;2024-01-06T10:17:38;15.23;;;8.25;;
53971;SDS011;40530;53.062;6.078;2024-01-06T10:20:08;13.30;;;8.88;;
53971;SDS011;40530;53.062;6.078;2024-01-06T10:22:37;14.35;;;9.48;;
53971;SDS011;40530;53.062;6.078;2024-01-06T10:25:07;13.88;;;9.48;;
53971;SDS011;40530;53.062;6.078;2024-01-06T10:27:34;18.40;;;8.85;;
53971;SDS011;40530;53.062;6.078;2024-01-06T10:30:01;19.52;;;9.23;;
53971;SDS011;40530;53.062;6.078;2024-01-06T10:32:30;12.07;;;8.30;;
53971;SDS011;40530;53.062;6.078;2024-01-06T10:34:56;12.13;;;8.27;;
53971;SDS011;40530;53.062;6.078;2024-01-06T10:37:24;14.30;;;8.95;;
53971;SDS011;40530;53.062;6.078;2024-01-06T10:40:04;15.68;;;9.43;;
53971;SDS011;40530;53.062;6.078;2024-01-06T10:42:30;15.02;;;9.45;;
53971;SDS011;40530;53.062;6.078;2024-01-06T10:44:57;12.57;;;8.18;;
53971;SDS011;40530;53.062;6.078;2024-01-06T10:47:23;13.50;;;9.30;;
53971;SDS011;40530;53.062;6.078;2024-01-06T10:49:51;14.32;;;9.02;;
53971;SDS011;40530;53.062;6.078;2024-01-06T10:52:19;12.68;;;8.75;;
53971;SDS011;40530;53.062;6.078;2024-01-06T10:54:45;17.95;;;9.63;;
53971;SDS011;40530;53.062;6.078;2024-01-06T10:57:15;12.27;;;9.32;;
53971;SDS011;40530;53.062;6.078;2024-01-06T10:59:41;15.98;;;9.95;;
53971;SDS011;40530;53.062;6.078;2024-01-06T11:02:08;13.65;;;9.65;;
53971;SDS011;40530;53.062;6.078;2024-01-06T11:04:34;16.80;;;9.52;;
53971;SDS011;40530;53.062;6.078;2024-01-06T11:07:00;13.80;;;8.65;;
53971;SDS011;40530;53.062;6.078;2024-01-06T11:09:27;12.63;;;8.52;;
53971;SDS011;40530;53.062;6.078;2024-01-06T11:11:59;12.95;;;9.18;;
53971;SDS011;40530;53.062;6.078;2024-01-06T11:14:26;14.55;;;8.57;;
53971;SDS011;40530;53.062;6.078;2024-01-06T11:16:58;12.35;;;7.65;;
53971;SDS011;40530;53.062;6.078;2024-01-06T11:24:46;13.60;;;7.18;;
53971;SDS011;40530;53.062;6.078;2024-01-06T11:27:17;10.38;;;7.15;;
53971;SDS011;40530;53.062;6.078;2024-01-06T11:29:44;8.07;;;6.28;;
53971;SDS011;40530;53.062;6.078;2024-01-06T11:32:17;8.93;;;5.55;;
53971;SDS011;40530;53.062;6.078;2024-01-06T11:34:49;7.93;;;5.25;;
53971;SDS011;40530;53.062;6.078;2024-01-06T11:37:19;10.02;;;6.03;;
53971;SDS011;40530;53.062;6.078;2024-01-06T11:39:46;8.13;;;5.75;;
53971;SDS011;40530;53.062;6.078;2024-01-06T11:42:12;8.13;;;5.57;;
53971;SDS011;40530;53.062;6.078;2024-01-06T11:44:39;7.15;;;4.97;;
53971;SDS011;40530;53.062;6.078;2024-01-06T11:47:08;7.10;;;5.18;;
53971;SDS011;40530;53.062;6.078;2024-01-06T11:49:36;6.47;;;4.88;;
53971;SDS011;40530;53.062;6.078;2024-01-06T11:52:03;7.38;;;5.25;;
53971;SDS011;40530;53.062;6.078;2024-01-06T11:54:29;8.15;;;5.03;;
53971;SDS011;40530;53.062;6.078;2024-01-06T11:56:55;7.68;;;5.35;;
53971;SDS011;40530;53.062;6.078;2024-01-06T11:59:22;8.60;;;5.50;;
53971;SDS011;40530;53.062;6.078;2024-01-06T12:01:49;7.53;;;5.82;;
53971;SDS011;40530;53.062;6.078;2024-01-06T12:04:16;7.90;;;5.22;;
53971;SDS011;40530;53.062;6.078;2024-01-06T12:06:43;7.38;;;4.63;;
53971;SDS011;40530;53.062;6.078;2024-01-06T12:09:10;7.88;;;5.07;;
53971;SDS011;40530;53.062;6.078;2024-01-06T12:11:39;7.35;;;4.95;;
53971;SDS011;40530;53.062;6.078;2024-01-06T12:14:05;8.02;;;5.50;;
53971;SDS011;40530;53.062;6.078;2024-01-06T12:16:31;9.68;;;5.80;;
53971;SDS011;40530;53.062;6.078;2024-01-06T12:18:58;8.07;;;5.35;;
53971;SDS011;40530;53.062;6.078;2024-01-06T12:21:26;7.28;;;5.70;;
53971;SDS011;40530;53.062;6.078;2024-01-06T12:23:53;6.40;;;5.25;;
53971;SDS011;40530;53.062;6.078;2024-01-06T12:26:19;7.40;;;5.70;;
53971;SDS011;40530;53.062;6.078;2024-01-06T12:28:45;6.93;;;5.60;;
53971;SDS011;40530;53.062;6.078;2024-01-06T12:31:11;6.65;;;5.53;;
53971;SDS011;40530;53.062;6.078;2024-01-06T12:33:41;6.72;;;5.75;;
53971;SDS011;40530;53.062;6.078;2024-01-06T12:36:07;8.15;;;6.10;;
53971;SDS011;40530;53.062;6.078;2024-01-06T12:38:34;9.52;;;6.95;;
53971;SDS011;40530;53.062;6.078;2024-01-06T12:41:00;12.40;;;6.28;;
53971;SDS011;40530;53.062;6.078;2024-01-06T12:43:27;7.82;;;6.95;;
53971;SDS011;40530;53.062;6.078;2024-01-06T12:45:53;7.15;;;5.95;;
53971;SDS011;40530;53.062;6.078;2024-01-06T12:48:22;9.25;;;6.07;;
53971;SDS011;40530;53.062;6.078;2024-01-06T12:50:48;10.77;;;7.53;;
53971;SDS011;40530;53.062;6.078;2024-01-06T12:53:14;8.15;;;6.45;;
53971;SDS011;40530;53.062;6.078;2024-01-06T12:55:42;9.75;;;7.53;;
53971;SDS011;40530;53.062;6.078;2024-01-06T12:58:08;9.43;;;7.50;;
53971;SDS011;40530;53.062;6.078;2024-01-06T13:00:34;8.82;;;7.35;;
53971;SDS011;40530;53.062;6.078;2024-01-06T13:03:00;10.93;;;7.13;;
53971;SDS011;40530;53.062;6.078;2024-01-06T13:05:26;8.15;;;6.57;;
53971;SDS011;40530;53.062;6.078;2024-01-06T13:07:52;12.07;;;7.25;;
53971;SDS011;40530;53.062;6.078;2024-01-06T13:10:18;13.20;;;7.57;;
53971;SDS011;40530;53.062;6.078;2024-01-06T13:12:44;9.15;;;7.68;;
53971;SDS011;40530;53.062;6.078;2024-01-06T13:15:10;10.18;;;7.80;;
53971;SDS011;40530;53.062;6.078;2024-01-06T13:17:39;10.18;;;6.93;;
53971;SDS011;40530;53.062;6.078;2024-01-06T13:20:05;9.98;;;7.82;;
53971;SDS011;40530;53.062;6.078;2024-01-06T13:22:33;11.45;;;6.70;;
53971;SDS011;40530;53.062;6.078;2024-01-06T13:24:59;7.10;;;5.85;;
53971;SDS011;40530;53.062;6.078;2024-01-06T13:27:25;7.95;;;6.20;;
53971;SDS011;40530;53.062;6.078;2024-01-06T13:29:54;7.03;;;5.70;;
53971;SDS011;40530;53.062;6.078;2024-01-06T13:32:20;6.38;;;4.80;;
53971;SDS011;40530;53.062;6.078;2024-01-06T13:34:47;7.13;;;5.75;;
53971;SDS011;40530;53.062;6.078;2024-01-06T13:37:19;7.78;;;5.78;;
53971;SDS011;40530;53.062;6.078;2024-01-06T13:39:47;8.45;;;6.07;;
53971;SDS011;40530;53.062;6.078;2024-01-06T13:42:13;7.68;;;6.00;;
53971;SDS011;40530;53.062;6.078;2024-01-06T13:44:39;7.38;;;5.30;;
53971;SDS011;40530;53.062;6.078;2024-01-06T13:47:05;10.65;;;6.15;;
53971;SDS011;40530;53.062;6.078;2024-01-06T13:49:31;6.03;;;5.25;;
53971;SDS011;40530;53.062;6.078;2024-01-06T13:51:57;6.95;;;5.53;;
53971;SDS011;40530;53.062;6.078;2024-01-06T13:54:23;7.45;;;5.00;;
53971;SDS011;40530;53.062;6.078;2024-01-06T13:56:49;7.47;;;5.63;;
53971;SDS011;40530;53.062;6.078;2024-01-06T13:59:17;7.05;;;5.47;;
53971;SDS011;40530;53.062;6.078;2024-01-06T14:01:43;7.85;;;6.07;;
53971;SDS011;40530;53.062;6.078;2024-01-06T14:04:09;6.95;;;5.53;;
53971;SDS011;40530;53.062;6.078;2024-01-06T14:06:35;7.75;;;5.80;;
53971;SDS011;40530;53.062;6.078;2024-01-06T14:09:01;8.98;;;6.38;;
53971;SDS011;40530;53.062;6.078;2024-01-06T14:11:27;8.45;;;4.93;;
53971;SDS011;40530;53.062;6.078;2024-01-06T14:13:56;8.18;;;5.93;;
53971;SDS011;40530;53.062;6.078;2024-01-06T14:16:22;7.60;;;6.05;;
53971;SDS011;40530;53.062;6.078;2024-01-06T14:18:49;8.85;;;5.97;;
53971;SDS011;40530;53.062;6.078;2024-01-06T14:21:15;6.95;;;5.40;;
53971;SDS011;40530;53.062;6.078;2024-01-06T14:23:44;9.63;;;5.35;;
53971;SDS011;40530;53.062;6.078;2024-01-06T14:26:10;9.77;;;5.75;;
53971;SDS011;40530;53.062;6.078;2024-01-06T14:28:36;6.85;;;5.32;;
53971;SDS011;40530;53.062;6.078;2024-01-06T14:31:02;6.82;;;5.45;;
53971;SDS011;40530;53.062;6.078;2024-01-06T14:33:28;9.02;;;5.78;;
53971;SDS011;40530;53.062;6.078;2024-01-06T14:35:54;9.40;;;5.97;;